createdAt,value
2019-03-30T00:02:07.497Z,42.97
2019-03-30T00:04:35.222Z,44.27
2019-03-30T00:07:02.895Z,42.50
2019-03-30T00:09:30.596Z,40.30
2019-03-30T00:11:58.340Z,40.87
2019-03-30T00:14:25.983Z,39.27
2019-03-30T00:16:53.677Z,40.13
2019-03-30T00:19:34.364Z,41.50
2019-03-30T00:21:50.624Z,38.13
2019-03-30T00:24:18.392Z,39.30
2019-03-30T00:26:46.156Z,40.97
2019-03-30T00:29:13.805Z,42.00
2019-03-30T00:31:41.485Z,43.97
2019-03-30T00:34:09.147Z,42.57
2019-03-30T00:36:36.796Z,44.10
2019-03-30T00:39:05.780Z,44.47
2019-03-30T00:41:33.460Z,45.27
2019-03-30T00:44:01.198Z,45.73
2019-03-30T00:46:28.863Z,44.73
2019-03-30T00:48:56.507Z,46.07
2019-03-30T00:51:24.184Z,43.97
2019-03-30T00:53:51.864Z,42.43
2019-03-30T00:56:19.570Z,44.17
2019-03-30T00:58:47.301Z,44.67
2019-03-30T01:01:14.911Z,41.73
2019-03-30T01:03:42.634Z,44.03
2019-03-30T01:06:10.385Z,44.97
2019-03-30T01:08:38.064Z,43.50
2019-03-30T01:11:05.766Z,47.10
2019-03-30T01:13:33.434Z,42.60
2019-03-30T01:16:01.121Z,42.27
2019-03-30T01:18:31.599Z,43.60
2019-03-30T01:20:59.320Z,42.70
2019-03-30T01:23:27.360Z,40.40
2019-03-30T01:25:55.035Z,42.60
2019-03-30T01:28:22.708Z,40.03
2019-03-30T01:30:50.398Z,41.87
2019-03-30T01:33:18.114Z,40.83
2019-03-30T01:35:45.812Z,40.00
2019-03-30T01:38:13.534Z,40.80
2019-03-30T01:40:41.265Z,44.33
2019-03-30T01:43:09.038Z,42.27
2019-03-30T01:45:36.802Z,42.93
2019-03-30T01:48:05.376Z,38.90
2019-03-30T01:50:33.129Z,40.90
2019-03-30T01:53:00.790Z,37.97
2019-03-30T01:55:28.453Z,40.97
2019-03-30T01:57:56.306Z,40.77
2019-03-30T02:00:23.973Z,39.03
2019-03-30T02:02:51.678Z,39.63
2019-03-30T02:05:19.419Z,38.37
2019-03-30T02:07:47.102Z,40.30
2019-03-30T02:10:16.321Z,38.87
2019-03-30T02:12:44.017Z,39.80
2019-03-30T02:15:11.818Z,40.17
2019-03-30T02:17:39.547Z,37.57
2019-03-30T02:20:08.032Z,39.53
2019-03-30T02:22:35.707Z,37.03
2019-03-30T02:25:04.392Z,38.07
2019-03-30T02:27:32.086Z,37.30
2019-03-30T02:29:59.792Z,37.57
2019-03-30T02:32:27.490Z,36.93
2019-03-30T02:34:55.166Z,37.03
2019-03-30T02:37:22.836Z,34.97
2019-03-30T02:39:50.599Z,35.20
2019-03-30T02:42:18.294Z,36.77
2019-03-30T02:44:46.498Z,36.00
2019-03-30T02:47:14.347Z,34.37
2019-03-30T02:49:42.064Z,33.90
2019-03-30T02:52:09.802Z,35.47
2019-03-30T02:54:37.525Z,32.93
2019-03-30T02:57:05.197Z,33.57
2019-03-30T02:59:32.873Z,34.07
2019-03-30T03:02:00.543Z,37.00
2019-03-30T03:04:28.196Z,35.97
2019-03-30T03:06:55.978Z,34.27
2019-03-30T03:09:23.671Z,34.73
2019-03-30T03:11:51.349Z,34.00
2019-03-30T03:14:19.061Z,33.53
2019-03-30T03:16:46.737Z,35.37
2019-03-30T03:19:14.515Z,34.93
2019-03-30T03:21:42.290Z,35.53
2019-03-30T03:24:10.137Z,35.27
2019-03-30T03:26:37.808Z,35.77
2019-03-30T03:29:05.522Z,34.30
2019-03-30T03:31:33.219Z,34.13
2019-03-30T03:34:00.916Z,33.13
2019-03-30T03:36:28.550Z,33.33
2019-03-30T03:38:56.367Z,32.77
2019-03-30T03:41:24.069Z,32.40
2019-03-30T03:43:51.787Z,33.83
2019-03-30T03:46:19.458Z,34.70
2019-03-30T03:48:47.225Z,33.23
2019-03-30T03:51:25.575Z,34.70
2019-03-30T03:53:45.024Z,34.63
2019-03-30T03:56:14.451Z,36.37
2019-03-30T03:58:43.301Z,35.37
2019-03-30T04:01:12.421Z,35.50
2019-03-30T04:03:41.290Z,37.37
2019-03-30T04:06:09.024Z,37.47
2019-03-30T04:08:36.742Z,35.90
2019-03-30T04:11:04.518Z,35.63
2019-03-30T04:13:32.205Z,34.23
2019-03-30T04:15:59.913Z,32.63
2019-03-30T04:18:27.595Z,33.33
2019-03-30T04:20:55.260Z,35.33
2019-03-30T04:23:23.013Z,35.00
2019-03-30T04:25:50.707Z,36.00
2019-03-30T04:28:18.368Z,35.20
2019-03-30T04:30:46.182Z,33.63
2019-03-30T04:33:13.873Z,34.30
2019-03-30T04:35:41.538Z,36.47
2019-03-30T04:38:09.227Z,36.77
2019-03-30T04:40:36.901Z,36.20
2019-03-30T04:43:04.541Z,36.47
2019-03-30T04:45:32.333Z,38.47
2019-03-30T04:48:00.103Z,34.20
2019-03-30T04:50:27.742Z,33.30
2019-03-30T04:52:55.486Z,37.47
2019-03-30T04:55:23.219Z,45.93
2019-03-30T04:57:50.887Z,45.60
2019-03-30T05:00:18.561Z,46.03
2019-03-30T05:02:46.240Z,44.23
2019-03-30T05:05:13.930Z,44.10
2019-03-30T05:07:41.648Z,44.60
2019-03-30T05:10:09.540Z,45.67
2019-03-30T05:12:37.263Z,62.03
2019-03-30T05:15:06.068Z,51.67
2019-03-30T05:17:46.842Z,58.93
2019-03-30T05:20:03.088Z,51.30
2019-03-30T05:22:30.736Z,53.23
2019-03-30T05:24:58.447Z,65.50
2019-03-30T05:27:26.145Z,53.93
2019-03-30T05:29:53.818Z,54.23
2019-03-30T05:32:21.537Z,55.00
2019-03-30T05:34:49.179Z,48.87
2019-03-30T05:37:16.865Z,47.40
2019-03-30T05:39:44.588Z,41.37
2019-03-30T05:42:12.342Z,40.40
2019-03-30T05:44:40.010Z,45.20
2019-03-30T05:47:07.947Z,46.50
2019-03-30T05:49:35.590Z,45.07
2019-03-30T05:52:03.269Z,44.73
2019-03-30T05:54:30.988Z,43.87
2019-03-30T05:56:58.702Z,43.37
2019-03-30T05:59:26.332Z,46.30
2019-03-30T06:01:54.000Z,44.70
2019-03-30T06:04:21.709Z,48.60
2019-03-30T06:06:49.428Z,47.73
2019-03-30T06:09:17.112Z,45.03
2019-03-30T06:11:44.830Z,49.77
2019-03-30T06:14:12.500Z,49.23
2019-03-30T06:16:40.347Z,48.20
2019-03-30T06:19:08.050Z,49.53
2019-03-30T06:21:35.765Z,49.00
2019-03-30T06:24:03.412Z,53.03
2019-03-30T06:26:31.130Z,52.03
2019-03-30T06:28:58.832Z,54.37
2019-03-30T06:31:26.543Z,54.37
2019-03-30T06:33:54.260Z,58.57
2019-03-30T06:36:21.964Z,55.83
2019-03-30T06:38:49.677Z,55.10
2019-03-30T06:41:17.415Z,53.47
2019-03-30T06:43:45.101Z,55.77
2019-03-30T06:46:12.768Z,56.20
2019-03-30T06:48:40.460Z,56.27
2019-03-30T06:51:08.159Z,59.37
2019-03-30T06:53:35.837Z,57.60
2019-03-30T06:56:03.513Z,59.20
2019-03-30T06:58:31.331Z,59.37
2019-03-30T07:00:59.142Z,58.73
2019-03-30T07:03:26.913Z,57.43
2019-03-30T07:05:55.085Z,59.30
2019-03-30T07:08:23.302Z,57.47
2019-03-30T07:10:51.004Z,58.10
2019-03-30T07:13:18.676Z,58.87
2019-03-30T07:15:47.367Z,56.13
2019-03-30T07:18:15.842Z,58.57
2019-03-30T07:20:43.555Z,56.00
2019-03-30T07:23:12.756Z,57.83
2019-03-30T07:25:41.048Z,56.37
2019-03-30T07:28:08.720Z,55.50
2019-03-30T07:30:36.396Z,56.70
2019-03-30T07:33:04.046Z,55.57
2019-03-30T07:35:31.818Z,55.03
2019-03-30T07:37:59.456Z,54.80
2019-03-30T07:40:27.208Z,51.93
2019-03-30T07:42:54.941Z,49.17
2019-03-30T07:45:22.623Z,48.53
2019-03-30T07:47:50.285Z,50.20
2019-03-30T07:50:18.109Z,46.07
2019-03-30T07:52:45.782Z,43.20
2019-03-30T07:55:13.557Z,38.87
2019-03-30T07:57:41.259Z,38.50
2019-03-30T08:00:09.078Z,38.90
2019-03-30T08:02:36.716Z,40.97
2019-03-30T08:05:05.860Z,40.10
2019-03-30T08:07:33.574Z,39.77
2019-03-30T08:10:01.235Z,39.27
2019-03-30T08:12:28.926Z,36.93
2019-03-30T08:14:56.616Z,36.87
2019-03-30T08:17:24.364Z,36.57
2019-03-30T08:19:52.110Z,35.13
2019-03-30T08:22:19.749Z,36.03
2019-03-30T08:24:47.465Z,34.77
2019-03-30T08:27:15.159Z,33.63
2019-03-30T08:29:42.846Z,34.70
2019-03-30T08:32:10.547Z,34.40
2019-03-30T08:34:38.381Z,32.93
2019-03-30T08:37:06.030Z,29.10
2019-03-30T08:39:33.742Z,24.53
2019-03-30T08:42:01.433Z,28.00
2019-03-30T08:44:29.178Z,29.77
2019-03-30T08:46:56.876Z,31.10
2019-03-30T08:49:24.557Z,26.10
2019-03-30T08:51:52.233Z,28.13
2019-03-30T08:54:19.949Z,28.73
2019-03-30T08:56:47.625Z,27.70
2019-03-30T08:59:15.327Z,27.00
2019-03-30T09:01:43.055Z,27.90
2019-03-30T09:04:10.754Z,26.33
2019-03-30T09:06:38.475Z,26.33
2019-03-30T09:09:06.745Z,25.97
2019-03-30T09:11:34.424Z,27.63
2019-03-30T09:14:02.122Z,26.10
2019-03-30T09:16:29.797Z,26.30
2019-03-30T09:18:57.498Z,26.90
2019-03-30T09:21:25.255Z,26.63
2019-03-30T09:23:52.961Z,28.37
2019-03-30T09:26:20.704Z,26.30
2019-03-30T09:28:48.340Z,26.67
2019-03-30T09:31:16.026Z,28.27
2019-03-30T09:33:43.778Z,27.47
2019-03-30T09:36:11.442Z,26.60
2019-03-30T09:38:39.157Z,27.20
2019-03-30T09:41:06.883Z,26.20
2019-03-30T09:43:37.412Z,25.20
2019-03-30T09:46:04.060Z,24.07
2019-03-30T09:48:31.725Z,23.50
2019-03-30T09:50:59.462Z,24.63
2019-03-30T09:53:27.157Z,19.63
2019-03-30T09:55:54.822Z,22.43
2019-03-30T09:58:22.919Z,24.60
2019-03-30T10:00:50.581Z,21.33
2019-03-30T10:03:18.308Z,20.47
2019-03-30T10:05:46.023Z,20.53
2019-03-30T10:08:13.718Z,21.40
2019-03-30T10:10:41.380Z,21.33
2019-03-30T10:13:09.095Z,21.20
2019-03-30T10:15:36.813Z,20.07
2019-03-30T10:18:05.469Z,21.20
2019-03-30T10:20:33.205Z,21.10
2019-03-30T10:23:00.934Z,19.77
2019-03-30T10:25:28.624Z,21.67
2019-03-30T10:27:56.398Z,21.27
2019-03-30T10:30:24.154Z,20.20
2019-03-30T10:32:52.021Z,22.53
2019-03-30T10:35:19.687Z,18.63
2019-03-30T10:37:47.352Z,17.07
2019-03-30T10:40:15.041Z,17.73
2019-03-30T10:42:42.764Z,17.73
2019-03-30T10:45:10.633Z,19.90
2019-03-30T10:47:38.391Z,19.27
2019-03-30T10:50:06.695Z,18.23
2019-03-30T10:52:34.596Z,19.83
2019-03-30T10:55:02.230Z,20.13
2019-03-30T10:57:29.956Z,19.43
2019-03-30T10:59:57.679Z,19.27
2019-03-30T11:02:25.431Z,18.73
2019-03-30T11:04:53.135Z,20.83
2019-03-30T11:07:20.807Z,20.97
2019-03-30T11:09:49.699Z,19.87
2019-03-30T11:12:17.718Z,19.23
2019-03-30T11:14:45.579Z,19.37
2019-03-30T11:17:15.285Z,18.60
2019-03-30T11:19:43.056Z,17.03
2019-03-30T11:22:10.804Z,17.60
2019-03-30T11:24:38.582Z,18.73
2019-03-30T11:27:06.350Z,17.43
2019-03-30T11:29:34.120Z,16.67
2019-03-30T11:32:01.824Z,17.97
2019-03-30T11:34:29.653Z,19.83
2019-03-30T11:36:57.520Z,20.20
2019-03-30T11:39:25.484Z,18.53
2019-03-30T11:41:53.257Z,19.53
2019-03-30T11:44:21.125Z,20.10
2019-03-30T11:46:48.809Z,22.03
2019-03-30T11:49:16.658Z,20.30
2019-03-30T11:51:44.405Z,15.77
2019-03-30T11:54:12.049Z,19.23
2019-03-30T11:56:39.951Z,20.60
2019-03-30T11:59:07.709Z,21.80
2019-03-30T12:01:35.587Z,19.67
2019-03-30T12:04:03.335Z,19.93
2019-03-30T12:06:31.216Z,23.37
2019-03-30T12:08:59.089Z,23.73
2019-03-30T12:11:26.851Z,23.17
2019-03-30T12:13:54.725Z,23.27
2019-03-30T12:16:22.481Z,21.33
2019-03-30T12:18:50.367Z,19.63
2019-03-30T12:21:18.424Z,19.77
2019-03-30T12:23:46.191Z,18.63
2019-03-30T12:26:14.066Z,18.67
2019-03-30T12:28:42.777Z,21.27
2019-03-30T12:31:10.530Z,20.07
2019-03-30T12:33:38.384Z,19.43
2019-03-30T12:36:06.088Z,20.73
2019-03-30T12:38:34.024Z,19.17
2019-03-30T12:41:01.788Z,14.90
2019-03-30T12:43:29.955Z,13.37
2019-03-30T12:45:57.727Z,14.43
2019-03-30T12:48:25.590Z,13.90
2019-03-30T12:50:53.467Z,13.03
2019-03-30T12:53:21.335Z,13.00
2019-03-30T12:55:49.778Z,14.13
2019-03-30T12:58:17.669Z,14.83
2019-03-30T13:00:45.358Z,11.77
2019-03-30T13:03:13.109Z,13.17
2019-03-30T13:05:40.978Z,12.03
2019-03-30T13:08:08.629Z,12.40
2019-03-30T13:10:36.324Z,12.80
2019-03-30T13:13:04.174Z,12.60
2019-03-30T13:15:32.043Z,11.10
2019-03-30T13:17:59.795Z,11.50
2019-03-30T13:20:27.574Z,12.77
2019-03-30T13:22:55.455Z,11.67
2019-03-30T13:25:23.517Z,12.60
2019-03-30T13:27:53.431Z,14.20
2019-03-30T13:30:20.907Z,13.77
2019-03-30T13:32:48.660Z,14.13
2019-03-30T13:35:16.626Z,17.10
2019-03-30T13:37:44.319Z,14.40
2019-03-30T13:40:11.959Z,13.20
2019-03-30T13:42:39.827Z,14.17
2019-03-30T13:45:07.807Z,14.40
2019-03-30T13:47:35.436Z,13.60
2019-03-30T13:50:03.321Z,13.73
2019-03-30T13:52:31.404Z,14.10
2019-03-30T13:54:59.163Z,14.27
2019-03-30T13:57:26.829Z,13.93
2019-03-30T13:59:54.524Z,14.67
2019-03-30T14:02:22.365Z,14.90
2019-03-30T14:04:52.453Z,15.77
2019-03-30T14:07:19.537Z,14.70
2019-03-30T14:09:47.505Z,12.27
2019-03-30T14:12:15.374Z,11.73
2019-03-30T14:14:43.098Z,11.43
2019-03-30T14:17:10.915Z,10.77
2019-03-30T14:19:38.768Z,10.43
2019-03-30T14:22:06.522Z,9.93
2019-03-30T14:24:34.204Z,11.20
2019-03-30T14:27:01.966Z,10.87
2019-03-30T14:29:29.725Z,11.23
2019-03-30T14:31:57.400Z,11.23
2019-03-30T14:34:25.262Z,10.83
2019-03-30T14:36:53.130Z,10.60
2019-03-30T14:39:20.890Z,11.17
2019-03-30T14:41:48.661Z,9.67
2019-03-30T14:44:16.433Z,10.20
2019-03-30T14:46:44.410Z,9.97
2019-03-30T14:49:12.271Z,9.93
2019-03-30T14:51:40.247Z,10.63
2019-03-30T14:54:08.106Z,11.13
2019-03-30T14:56:45.609Z,11.83
2019-03-30T14:59:10.521Z,11.03
2019-03-30T15:01:34.716Z,10.40
2019-03-30T15:04:02.459Z,10.77
2019-03-30T15:06:30.320Z,10.70
2019-03-30T15:08:58.086Z,10.90
2019-03-30T15:11:25.846Z,9.73
2019-03-30T15:13:53.613Z,9.47
2019-03-30T15:16:21.497Z,11.10
2019-03-30T15:18:49.252Z,13.80
2019-03-30T15:21:17.010Z,15.23
2019-03-30T15:23:44.660Z,13.90
2019-03-30T15:26:13.369Z,14.23
2019-03-30T15:28:42.787Z,15.63
2019-03-30T15:31:10.846Z,14.23
2019-03-30T15:33:38.608Z,11.10
2019-03-30T15:36:06.480Z,9.17
2019-03-30T15:38:34.167Z,8.93
2019-03-30T15:41:02.020Z,10.20
2019-03-30T15:43:38.079Z,9.43
2019-03-30T15:45:59.598Z,10.40
2019-03-30T15:48:28.275Z,10.73
2019-03-30T15:50:56.348Z,9.03
2019-03-30T15:53:24.131Z,8.60
2019-03-30T15:55:51.759Z,10.07
2019-03-30T15:58:19.548Z,8.60
2019-03-30T16:00:47.221Z,9.23
2019-03-30T16:03:14.902Z,8.50
2019-03-30T16:05:42.675Z,8.97
2019-03-30T16:08:10.308Z,10.20
2019-03-30T16:10:37.994Z,10.63
2019-03-30T16:13:05.752Z,9.63
2019-03-30T16:15:33.418Z,10.20
2019-03-30T16:18:01.094Z,9.87
2019-03-30T16:20:28.958Z,9.97
2019-03-30T16:22:56.641Z,9.00
2019-03-30T16:25:24.297Z,8.90
2019-03-30T16:27:52.007Z,9.63
2019-03-30T16:30:19.825Z,9.37
2019-03-30T16:32:47.539Z,9.73
2019-03-30T16:35:15.270Z,11.10
2019-03-30T16:37:42.991Z,9.73
2019-03-30T16:40:11.311Z,9.87
2019-03-30T16:42:39.078Z,11.23
2019-03-30T16:45:07.259Z,84.00
2019-03-30T16:47:34.948Z,9.80
2019-03-30T16:50:02.621Z,7.83
2019-03-30T16:52:30.353Z,7.40
2019-03-30T16:54:58.047Z,7.00
2019-03-30T16:57:25.711Z,6.97
2019-03-30T16:59:53.409Z,7.57
2019-03-30T17:02:21.251Z,8.00
2019-03-30T17:04:48.945Z,6.73
2019-03-30T17:07:17.229Z,6.80
2019-03-30T17:09:44.957Z,7.67
2019-03-30T17:12:12.725Z,7.70
2019-03-30T17:14:40.417Z,7.57
2019-03-30T17:17:08.081Z,7.47
2019-03-30T17:19:35.719Z,7.80
2019-03-30T17:22:03.461Z,8.93
2019-03-30T17:24:31.166Z,17.03
2019-03-30T17:26:58.853Z,34.93
2019-03-30T17:29:26.532Z,42.70
2019-03-30T17:31:54.446Z,46.93
2019-03-30T17:34:22.420Z,29.47
2019-03-30T17:36:50.060Z,29.47
2019-03-30T17:39:17.836Z,17.00
2019-03-30T17:41:45.491Z,13.30
2019-03-30T17:44:13.368Z,16.07
2019-03-30T17:46:41.033Z,14.37
2019-03-30T17:49:08.910Z,14.17
2019-03-30T17:51:36.674Z,16.07
2019-03-30T17:54:05.377Z,16.77
2019-03-30T17:56:33.232Z,16.07
2019-03-30T17:59:01.100Z,21.60
2019-03-30T18:01:28.969Z,21.10
2019-03-30T18:03:56.940Z,18.30
2019-03-30T18:06:24.583Z,15.53
2019-03-30T18:08:52.378Z,16.87
2019-03-30T18:11:20.124Z,17.00
2019-03-30T18:13:47.865Z,28.40
2019-03-30T18:16:15.681Z,29.03
2019-03-30T18:18:43.447Z,25.57
2019-03-30T18:21:11.301Z,26.00
2019-03-30T18:23:39.074Z,27.20
2019-03-30T18:26:06.828Z,21.23
2019-03-30T18:28:34.589Z,29.30
2019-03-30T18:31:02.358Z,23.60
2019-03-30T18:33:30.226Z,25.03
2019-03-30T18:35:58.408Z,28.87
2019-03-30T18:38:26.477Z,36.20
2019-03-30T18:40:54.449Z,40.77
2019-03-30T18:43:22.095Z,43.90
2019-03-30T18:45:50.099Z,46.90
2019-03-30T18:48:18.330Z,52.57
2019-03-30T18:50:46.597Z,60.37
2019-03-30T18:53:14.777Z,40.43
2019-03-30T18:55:42.589Z,42.10
2019-03-30T18:58:10.344Z,33.57
2019-03-30T19:00:38.524Z,36.77
2019-03-30T19:03:06.303Z,45.70
2019-03-30T19:05:34.050Z,51.17
2019-03-30T19:08:02.524Z,59.90
2019-03-30T19:10:30.298Z,45.27
2019-03-30T19:12:58.480Z,53.30
2019-03-30T19:15:26.344Z,40.93
2019-03-30T19:17:54.219Z,56.60
2019-03-30T19:20:21.968Z,49.67
2019-03-30T19:22:49.757Z,45.77
2019-03-30T19:25:17.401Z,58.13
2019-03-30T19:27:45.183Z,48.40
2019-03-30T19:30:13.663Z,42.73
2019-03-30T19:32:41.408Z,52.73
2019-03-30T19:35:09.303Z,68.43
2019-03-30T19:37:37.047Z,70.03
2019-03-30T19:40:06.210Z,68.17
2019-03-30T19:42:33.924Z,78.97
2019-03-30T19:45:01.695Z,74.30
2019-03-30T19:47:29.505Z,63.97
2019-03-30T19:49:57.169Z,66.73
2019-03-30T19:52:38.991Z,76.43
2019-03-30T19:54:54.529Z,48.43
2019-03-30T19:57:22.259Z,62.13
2019-03-30T19:59:53.822Z,58.60
2019-03-30T20:02:21.798Z,61.23
2019-03-30T20:04:49.722Z,58.70
2019-03-30T20:07:17.621Z,53.53
2019-03-30T20:09:45.493Z,64.10
2019-03-30T20:12:13.505Z,78.43
2019-03-30T20:14:41.432Z,78.53
2019-03-30T20:17:09.304Z,77.00
2019-03-30T20:19:37.166Z,77.57
2019-03-30T20:22:05.656Z,76.50
2019-03-30T20:24:33.518Z,71.57
2019-03-30T20:27:01.386Z,69.97
2019-03-30T20:29:29.145Z,67.87
2019-03-30T20:31:56.921Z,67.53
2019-03-30T20:34:24.698Z,71.73
2019-03-30T20:36:52.663Z,73.93
2019-03-30T20:39:20.356Z,79.07
2019-03-30T20:41:48.091Z,76.87
2019-03-30T20:44:15.736Z,80.17
2019-03-30T20:46:43.822Z,77.40
2019-03-30T20:49:11.797Z,78.47
2019-03-30T20:51:39.427Z,64.37
2019-03-30T20:54:07.424Z,65.07
2019-03-30T20:56:35.076Z,83.70
2019-03-30T20:59:02.962Z,83.07
2019-03-30T21:01:30.738Z,70.87
2019-03-30T21:03:58.491Z,103.90
2019-03-30T21:06:26.189Z,77.70
2019-03-30T21:08:53.945Z,80.90
2019-03-30T21:11:21.784Z,81.43
2019-03-30T21:13:49.552Z,79.93
2019-03-30T21:16:17.625Z,79.37
2019-03-30T21:18:45.499Z,78.47
2019-03-30T21:21:13.567Z,74.93
2019-03-30T21:23:41.543Z,74.00
2019-03-30T21:26:09.397Z,66.60
2019-03-30T21:28:37.278Z,50.17
2019-03-30T21:31:05.353Z,34.60
2019-03-30T21:33:33.327Z,32.43
2019-03-30T21:36:01.297Z,30.50
2019-03-30T21:38:29.053Z,30.87
2019-03-30T21:40:56.910Z,34.33
2019-03-30T21:43:24.704Z,39.73
2019-03-30T21:45:52.562Z,53.73
2019-03-30T21:48:20.534Z,52.40
2019-03-30T21:50:48.353Z,58.47
2019-03-30T21:53:16.235Z,54.87
2019-03-30T21:55:44.035Z,47.93
2019-03-30T21:58:11.707Z,45.40
2019-03-30T22:00:39.972Z,42.97
2019-03-30T22:03:07.954Z,45.03
2019-03-30T22:05:35.591Z,44.47
2019-03-30T22:08:04.399Z,47.77
2019-03-30T22:10:32.270Z,53.17
2019-03-30T22:13:00.137Z,52.67
2019-03-30T22:15:28.620Z,49.50
2019-03-30T22:17:56.998Z,52.07
2019-03-30T22:20:24.836Z,52.63
2019-03-30T22:22:52.633Z,47.77
2019-03-30T22:25:20.414Z,50.20
2019-03-30T22:27:48.162Z,45.83
2019-03-30T22:30:24.599Z,33.17
2019-03-30T22:32:45.536Z,34.17
2019-03-30T22:35:13.267Z,33.93
2019-03-30T22:37:41.178Z,33.33
2019-03-30T22:40:09.043Z,32.00
2019-03-30T22:42:36.703Z,33.20
2019-03-30T22:45:06.004Z,38.07
2019-03-30T22:47:34.287Z,45.00
2019-03-30T22:50:02.163Z,46.97
2019-03-30T22:52:29.912Z,43.37
2019-03-30T22:54:57.689Z,42.70
2019-03-30T22:57:25.455Z,38.87
2019-03-30T22:59:53.321Z,38.03
2019-03-30T23:02:22.070Z,38.87
2019-03-30T23:04:49.877Z,43.00
2019-03-30T23:07:17.851Z,44.80
2019-03-30T23:09:45.627Z,48.60
2019-03-30T23:12:13.587Z,50.50
2019-03-30T23:14:41.559Z,52.47
2019-03-30T23:17:09.377Z,48.93
2019-03-30T23:19:37.069Z,47.20
2019-03-30T23:22:05.449Z,44.30
2019-03-30T23:24:33.243Z,43.47
2019-03-30T23:27:00.991Z,38.10
2019-03-30T23:29:28.757Z,35.50
2019-03-30T23:31:56.538Z,34.20
2019-03-30T23:34:24.293Z,35.37
2019-03-30T23:36:52.167Z,33.93
2019-03-30T23:39:20.026Z,34.03
2019-03-30T23:41:47.799Z,33.23
2019-03-30T23:44:15.577Z,32.93
2019-03-30T23:46:43.434Z,34.07
2019-03-30T23:49:11.189Z,36.20
2019-03-30T23:51:38.974Z,33.50
2019-03-30T23:54:08.268Z,34.83
2019-03-30T23:56:36.135Z,33.50
2019-03-30T23:59:03.900Z,33.93
